Terminal Aerodrome Forecast
Issued by NWS Grand Forks, ND

Home | Current Version | Previous Version | Text Only | Print | Product List | Glossary On
Versions: 1 2 3 4 5 6 7 8 9 10 11 12 13 14 15 16 17 18 19 20 21
000
FTUS43 KFGF 280520
TAFGFK
TAF
KGFK 280520Z 2806/2906 VRB03KT P6SM BKN100
     FM280900 00000KT P6SM OVC015
     FM281400 34004KT P6SM OVC015
     FM281700 34007KT P6SM VCSH BKN030
     FM281800 34007KT P6SM VCSH BKN035
     FM290300 34006KT P6SM BKN060=

USA.gov is the U.S. government's official web portal to all federal, state and local government web resources and services.